createdAt,value
2022-09-09T00:05:56.990Z,100.00
2022-09-09T00:12:34.220Z,100.00
2022-09-09T00:19:07.099Z,100.00
2022-09-09T00:25:17.859Z,100.00
2022-09-09T00:31:27.623Z,100.00
2022-09-09T00:37:32.881Z,100.00
2022-09-09T00:43:41.520Z,100.00
2022-09-09T00:50:04.222Z,100.00
2022-09-09T00:56:17.457Z,100.00
2022-09-09T01:02:36.298Z,100.00
2022-09-09T01:08:44.578Z,100.00
2022-09-09T01:14:53.023Z,100.00
2022-09-09T01:21:21.125Z,100.00
2022-09-09T01:27:24.270Z,100.00
2022-09-09T01:33:26.339Z,100.00
2022-09-09T01:39:28.903Z,100.00
2022-09-09T01:45:31.998Z,100.00
2022-09-09T01:51:35.950Z,100.00
2022-09-09T01:58:04.180Z,100.00
2022-09-09T02:04:53.452Z,100.00
2022-09-09T02:11:07.846Z,100.00
2022-09-09T02:17:20.249Z,100.00
2022-09-09T02:23:22.487Z,100.00
2022-09-09T02:29:31.436Z,100.00
2022-09-09T02:35:38.275Z,100.00
2022-09-09T02:41:43.808Z,100.00
2022-09-09T02:48:08.865Z,100.00
2022-09-09T02:54:32.713Z,100.00
2022-09-09T03:00:36.997Z,100.00
2022-09-09T03:06:38.897Z,100.00
2022-09-09T03:12:40.835Z,100.00
2022-09-09T03:18:43.565Z,100.00
2022-09-09T03:24:45.492Z,100.00
2022-09-09T03:30:47.369Z,100.00
2022-09-09T03:36:50.159Z,100.00
2022-09-09T03:42:52.088Z,100.00
2022-09-09T03:48:54.265Z,100.00
2022-09-09T03:54:57.781Z,100.00
2022-09-09T04:01:17.429Z,100.00
2022-09-09T04:07:19.524Z,100.00
2022-09-09T04:13:21.656Z,100.00
2022-09-09T04:19:23.656Z,100.00
2022-09-09T04:25:25.774Z,100.00
2022-09-09T04:31:27.703Z,100.00
2022-09-09T04:37:29.669Z,100.00
2022-09-09T04:43:31.856Z,100.00
2022-09-09T04:49:33.748Z,100.00
2022-09-09T04:55:36.066Z,100.00
2022-09-09T05:01:38.042Z,100.00
2022-09-09T05:07:39.943Z,100.00
2022-09-09T05:13:41.852Z,100.00
2022-09-09T05:19:44.074Z,100.00
2022-09-09T05:25:59.469Z,100.00
2022-09-09T05:32:01.690Z,100.00
2022-09-09T05:38:03.653Z,100.00
2022-09-09T05:44:06.096Z,100.00
2022-09-09T05:50:08.760Z,100.00
2022-09-09T05:56:28.886Z,98.92
2022-09-09T06:02:30.895Z,99.00
2022-09-09T06:08:39.947Z,98.36
2022-09-09T06:14:46.126Z,98.63
2022-09-09T06:21:05.289Z,98.46
2022-09-09T06:27:07.356Z,97.54
2022-09-09T06:33:10.461Z,97.43
2022-09-09T06:39:14.979Z,97.54
2022-09-09T06:45:18.233Z,97.39
2022-09-09T06:51:23.336Z,88.02
2022-09-09T06:57:36.830Z,70.29
2022-09-09T07:03:40.360Z,66.87
2022-09-09T07:09:42.332Z,64.17
2022-09-09T07:15:44.221Z,60.11
2022-09-09T07:21:46.199Z,65.24
2022-09-09T07:27:48.235Z,69.50
2022-09-09T07:33:50.337Z,70.31
2022-09-09T07:39:52.385Z,71.01
2022-09-09T07:46:00.189Z,75.39
2022-09-09T07:52:02.189Z,77.43
2022-09-09T07:58:04.137Z,77.02
2022-09-09T08:04:10.406Z,76.40
2022-09-09T08:10:12.311Z,77.08
2022-09-09T08:16:24.338Z,77.28
2022-09-09T08:22:27.181Z,74.79
2022-09-09T08:28:29.202Z,69.00
2022-09-09T08:34:32.240Z,68.70
2022-09-09T08:40:44.486Z,72.04
2022-09-09T08:47:14.899Z,71.95
2022-09-09T08:53:34.103Z,71.83
2022-09-09T08:59:37.268Z,71.53
2022-09-09T09:06:05.988Z,69.78
2022-09-09T09:12:19.862Z,70.55
2022-09-09T09:18:21.860Z,70.00
2022-09-09T09:24:33.456Z,71.54
2022-09-09T09:30:51.202Z,67.73
2022-09-09T09:36:58.876Z,68.58
2022-09-09T09:43:09.653Z,65.60
2022-09-09T09:49:11.844Z,63.20
2022-09-09T09:55:15.517Z,62.11
2022-09-09T10:01:28.209Z,60.10
2022-09-09T10:07:30.182Z,62.08
2022-09-09T10:13:50.885Z,59.20
2022-09-09T10:20:13.756Z,58.56
2022-09-09T10:26:40.840Z,59.93
2022-09-09T10:32:54.319Z,53.71
2022-09-09T10:39:04.667Z,58.70
2022-09-09T10:45:34.704Z,58.80
2022-09-09T10:52:15.183Z,55.13
2022-09-09T10:58:42.419Z,56.66
2022-09-09T11:05:04.718Z,48.00
2022-09-09T11:11:28.125Z,41.28
2022-09-09T11:17:59.671Z,43.05
2022-09-09T11:24:11.476Z,47.38
2022-09-09T11:30:44.191Z,45.87
2022-09-09T11:37:05.829Z,49.62
2022-09-09T11:43:22.983Z,49.01
2022-09-09T11:49:46.619Z,46.22
2022-09-09T11:55:49.100Z,42.05
2022-09-09T12:01:58.403Z,40.48
2022-09-09T12:08:03.055Z,45.83
2022-09-09T12:14:05.259Z,47.48
2022-09-09T12:20:17.219Z,48.97
2022-09-09T12:26:36.223Z,50.05
2022-09-09T12:32:39.055Z,45.73
2022-09-09T12:38:43.187Z,42.23
2022-09-09T12:45:04.283Z,40.13
2022-09-09T12:51:19.246Z,36.46
2022-09-09T12:57:28.272Z,32.59
2022-09-09T13:03:30.201Z,31.10
2022-09-09T13:09:32.822Z,34.94
2022-09-09T13:15:34.741Z,36.91
2022-09-09T13:21:39.343Z,39.30
2022-09-09T13:27:52.284Z,42.87
2022-09-09T13:33:54.456Z,40.81
2022-09-09T13:39:56.822Z,38.26
2022-09-09T13:46:07.212Z,37.41
2022-09-09T13:52:19.003Z,34.67
2022-09-09T13:58:23.721Z,38.24
2022-09-09T14:04:25.656Z,38.56
2022-09-09T14:10:27.955Z,39.37
2022-09-09T14:16:30.276Z,36.26
2022-09-09T14:22:32.215Z,35.41
2022-09-09T14:34:57.017Z,35.07
2022-09-09T14:40:59.518Z,39.88
2022-09-09T14:47:01.416Z,41.48
2022-09-09T14:53:03.405Z,37.58
2022-09-09T14:59:05.771Z,33.25
2022-09-09T15:05:08.335Z,30.16
2022-09-09T15:11:12.102Z,31.46
2022-09-09T15:17:14.811Z,36.54
2022-09-09T15:23:17.878Z,37.54
2022-09-09T15:29:19.955Z,34.58
2022-09-09T15:35:21.844Z,32.63
2022-09-09T15:41:24.348Z,30.01
2022-09-09T15:47:26.235Z,29.23
2022-09-09T15:53:28.125Z,30.62
2022-09-09T15:59:32.328Z,33.64
2022-09-09T16:05:34.637Z,34.02
2022-09-09T16:11:38.976Z,32.41
2022-09-09T16:17:40.921Z,30.92
2022-09-09T16:23:43.211Z,32.61
2022-09-09T16:29:45.092Z,33.65
2022-09-09T16:35:47.039Z,32.32
2022-09-09T16:41:50.554Z,32.46
2022-09-09T16:47:52.441Z,33.89
2022-09-09T16:53:55.678Z,36.16
2022-09-09T17:00:00.261Z,42.54
2022-09-09T17:06:05.279Z,46.93
2022-09-09T17:12:07.685Z,50.74
2022-09-09T17:18:11.652Z,52.99
2022-09-09T17:24:13.680Z,54.21
2022-09-09T17:30:17.344Z,56.14
2022-09-09T17:36:30.255Z,58.22
2022-09-09T17:42:32.201Z,61.37
2022-09-09T17:48:34.627Z,62.48
2022-09-09T17:54:37.157Z,62.50
2022-09-09T18:00:39.046Z,62.80
2022-09-09T18:06:45.049Z,62.75
2022-09-09T18:12:46.921Z,62.68
2022-09-09T18:18:50.365Z,66.33
2022-09-09T18:24:53.134Z,68.16
2022-09-09T18:30:55.522Z,68.97
2022-09-09T18:36:58.085Z,66.98
2022-09-09T18:43:00.277Z,68.53
2022-09-09T18:49:02.647Z,66.07
2022-09-09T18:55:05.189Z,65.75
2022-09-09T19:01:13.193Z,65.76
2022-09-09T19:07:15.187Z,67.06
2022-09-09T19:13:17.289Z,68.09
2022-09-09T19:19:23.461Z,68.50
2022-09-09T19:25:26.482Z,69.74
2022-09-09T19:31:28.958Z,69.54
2022-09-09T19:37:32.192Z,69.34
2022-09-09T19:43:34.933Z,69.75
2022-09-09T19:49:37.115Z,69.99
2022-09-09T19:55:39.662Z,71.77
2022-09-09T20:01:44.861Z,71.70
2022-09-09T20:07:46.925Z,72.39
2022-09-09T20:13:49.803Z,73.15
2022-09-09T20:19:51.691Z,73.61
2022-09-09T20:25:54.201Z,73.89
2022-09-09T20:31:56.076Z,73.89
2022-09-09T20:37:58.040Z,73.09
2022-09-09T20:44:12.323Z,73.77
2022-09-09T20:50:15.508Z,75.05
2022-09-09T20:56:17.476Z,75.74
2022-09-09T21:02:19.420Z,76.89
2022-09-09T21:08:21.335Z,75.21
2022-09-09T21:14:23.697Z,74.18
2022-09-09T21:20:26.060Z,75.08
2022-09-09T21:26:28.592Z,73.62
2022-09-09T21:32:30.510Z,74.04
2022-09-09T21:38:33.368Z,75.38
2022-09-09T21:44:35.379Z,76.68
2022-09-09T21:50:43.212Z,76.86
2022-09-09T21:56:45.128Z,77.49
2022-09-09T22:02:47.362Z,77.64
2022-09-09T22:08:49.299Z,78.44
2022-09-09T22:14:53.137Z,77.17
2022-09-09T22:20:55.287Z,77.94
2022-09-09T22:26:57.242Z,78.94
2022-09-09T22:33:01.153Z,80.11
2022-09-09T22:39:03.955Z,79.94
2022-09-09T22:45:06.672Z,80.05
2022-09-09T22:51:14.086Z,80.71
2022-09-09T22:57:16.078Z,80.97
2022-09-09T23:03:19.318Z,81.44
2022-09-09T23:09:21.221Z,81.92
2022-09-09T23:15:23.226Z,81.48
2022-09-09T23:21:28.154Z,82.08
2022-09-09T23:27:31.276Z,82.33
2022-09-09T23:33:34.410Z,83.44
2022-09-09T23:39:36.597Z,83.77
2022-09-09T23:45:38.552Z,84.41
2022-09-09T23:51:41.055Z,85.01
2022-09-09T23:57:42.978Z,86.02
